sensor_id;sensor_type;location;lat;lon;timestamp;temperature;humidity
21193;DHT22;10754;51.106;7.164;2022-09-21T00:01:14;14.00;1.00
21193;DHT22;10754;51.106;7.164;2022-09-21T00:03:41;14.00;1.00
21193;DHT22;10754;51.106;7.164;2022-09-21T00:06:10;14.00;1.00
21193;DHT22;10754;51.106;7.164;2022-09-21T00:08:36;13.90;1.00
21193;DHT22;10754;51.106;7.164;2022-09-21T00:11:04;13.90;1.00
21193;DHT22;10754;51.106;7.164;2022-09-21T00:13:31;14.00;1.00
21193;DHT22;10754;51.106;7.164;2022-09-21T00:15:57;14.00;1.00
21193;DHT22;10754;51.106;7.164;2022-09-21T00:18:24;13.90;1.00
21193;DHT22;10754;51.106;7.164;2022-09-21T00:20:49;13.90;1.00
21193;DHT22;10754;51.106;7.164;2022-09-21T00:23:17;13.90;1.00
21193;DHT22;10754;51.106;7.164;2022-09-21T00:25:42;13.90;1.00
21193;DHT22;10754;51.106;7.164;2022-09-21T00:28:08;13.80;1.00
21193;DHT22;10754;51.106;7.164;2022-09-21T00:30:33;13.80;1.00
21193;DHT22;10754;51.106;7.164;2022-09-21T00:32:59;13.80;1.00
21193;DHT22;10754;51.106;7.164;2022-09-21T00:35:24;13.80;1.00
21193;DHT22;10754;51.106;7.164;2022-09-21T00:37:50;13.80;1.00
21193;DHT22;10754;51.106;7.164;2022-09-21T00:40:15;13.80;1.00
21193;DHT22;10754;51.106;7.164;2022-09-21T00:42:41;13.80;1.00
21193;DHT22;10754;51.106;7.164;2022-09-21T00:45:10;13.80;1.00
21193;DHT22;10754;51.106;7.164;2022-09-21T00:47:49;13.70;1.00
21193;DHT22;10754;51.106;7.164;2022-09-21T00:50:19;13.70;1.00
21193;DHT22;10754;51.106;7.164;2022-09-21T00:52:49;13.60;1.00
21193;DHT22;10754;51.106;7.164;2022-09-21T00:55:24;13.60;1.00
21193;DHT22;10754;51.106;7.164;2022-09-21T00:57:55;13.60;1.00
21193;DHT22;10754;51.106;7.164;2022-09-21T01:00:22;13.60;1.00
21193;DHT22;10754;51.106;7.164;2022-09-21T01:02:48;13.60;1.00
21193;DHT22;10754;51.106;7.164;2022-09-21T01:05:13;13.60;1.00
21193;DHT22;10754;51.106;7.164;2022-09-21T01:07:42;13.70;1.00
21193;DHT22;10754;51.106;7.164;2022-09-21T01:10:11;13.70;1.00
21193;DHT22;10754;51.106;7.164;2022-09-21T01:18:19;13.60;1.00
21193;DHT22;10754;51.106;7.164;2022-09-21T01:26:55;13.40;1.00
21193;DHT22;10754;51.106;7.164;2022-09-21T01:34:43;13.40;1.00
21193;DHT22;10754;51.106;7.164;2022-09-21T01:37:18;13.40;1.00
21193;DHT22;10754;51.106;7.164;2022-09-21T01:39:47;13.40;1.00
21193;DHT22;10754;51.106;7.164;2022-09-21T01:42:16;13.50;1.00
21193;DHT22;10754;51.106;7.164;2022-09-21T01:44:43;13.40;1.00
21193;DHT22;10754;51.106;7.164;2022-09-21T01:47:10;13.50;1.00
21193;DHT22;10754;51.106;7.164;2022-09-21T01:49:43;13.40;1.00
21193;DHT22;10754;51.106;7.164;2022-09-21T01:52:20;13.40;1.00
21193;DHT22;10754;51.106;7.164;2022-09-21T01:54:50;13.40;1.00
21193;DHT22;10754;51.106;7.164;2022-09-21T01:57:42;13.40;1.00
21193;DHT22;10754;51.106;7.164;2022-09-21T02:00:09;13.30;1.00
21193;DHT22;10754;51.106;7.164;2022-09-21T02:02:52;13.30;1.00
21193;DHT22;10754;51.106;7.164;2022-09-21T02:05:21;13.30;1.00
21193;DHT22;10754;51.106;7.164;2022-09-21T02:07:49;13.30;1.00
21193;DHT22;10754;51.106;7.164;2022-09-21T02:10:34;13.30;1.00
21193;DHT22;10754;51.106;7.164;2022-09-21T02:13:03;13.30;1.00
21193;DHT22;10754;51.106;7.164;2022-09-21T02:21:48;13.20;1.00
21193;DHT22;10754;51.106;7.164;2022-09-21T02:24:40;13.20;1.00
21193;DHT22;10754;51.106;7.164;2022-09-21T02:30:19;13.10;1.00
21193;DHT22;10754;51.106;7.164;2022-09-21T02:33:10;13.10;1.00
21193;DHT22;10754;51.106;7.164;2022-09-21T02:40:49;13.10;1.00
21193;DHT22;10754;51.106;7.164;2022-09-21T02:43:39;13.00;1.00
21193;DHT22;10754;51.106;7.164;2022-09-21T02:46:10;13.00;1.00
21193;DHT22;10754;51.106;7.164;2022-09-21T02:48:47;13.00;1.00
21193;DHT22;10754;51.106;7.164;2022-09-21T02:51:21;13.00;1.00
21193;DHT22;10754;51.106;7.164;2022-09-21T02:53:51;13.00;1.00
21193;DHT22;10754;51.106;7.164;2022-09-21T02:56:18;12.90;1.00
21193;DHT22;10754;51.106;7.164;2022-09-21T02:58:48;12.90;1.00
21193;DHT22;10754;51.106;7.164;2022-09-21T03:01:15;12.90;1.00
21193;DHT22;10754;51.106;7.164;2022-09-21T03:03:41;12.90;1.00
21193;DHT22;10754;51.106;7.164;2022-09-21T03:06:07;12.90;1.00
21193;DHT22;10754;51.106;7.164;2022-09-21T03:08:33;12.90;1.00
21193;DHT22;10754;51.106;7.164;2022-09-21T03:10:58;12.90;1.00
21193;DHT22;10754;51.106;7.164;2022-09-21T03:13:24;12.90;1.00
21193;DHT22;10754;51.106;7.164;2022-09-21T03:15:57;12.90;1.00
21193;DHT22;10754;51.106;7.164;2022-09-21T03:18:22;12.80;1.00
21193;DHT22;10754;51.106;7.164;2022-09-21T03:20:48;12.80;1.00
21193;DHT22;10754;51.106;7.164;2022-09-21T03:23:13;12.80;1.00
21193;DHT22;10754;51.106;7.164;2022-09-21T03:25:41;12.80;1.00
21193;DHT22;10754;51.106;7.164;2022-09-21T03:28:07;12.70;1.00
21193;DHT22;10754;51.106;7.164;2022-09-21T03:30:34;12.70;1.00
21193;DHT22;10754;51.106;7.164;2022-09-21T03:32:59;12.80;1.00
21193;DHT22;10754;51.106;7.164;2022-09-21T03:35:25;12.80;1.00
21193;DHT22;10754;51.106;7.164;2022-09-21T03:37:51;12.80;1.00
21193;DHT22;10754;51.106;7.164;2022-09-21T03:40:16;12.80;1.00
21193;DHT22;10754;51.106;7.164;2022-09-21T03:42:44;12.70;1.00
21193;DHT22;10754;51.106;7.164;2022-09-21T03:45:10;12.70;1.00
21193;DHT22;10754;51.106;7.164;2022-09-21T03:47:36;12.70;1.00
21193;DHT22;10754;51.106;7.164;2022-09-21T03:50:02;12.70;1.00
21193;DHT22;10754;51.106;7.164;2022-09-21T03:52:28;12.60;1.00
21193;DHT22;10754;51.106;7.164;2022-09-21T03:54:54;12.50;1.00
21193;DHT22;10754;51.106;7.164;2022-09-21T03:57:20;12.60;1.00
21193;DHT22;10754;51.106;7.164;2022-09-21T03:59:45;12.60;1.00
21193;DHT22;10754;51.106;7.164;2022-09-21T04:02:11;12.60;1.00
21193;DHT22;10754;51.106;7.164;2022-09-21T04:04:36;12.60;1.00
21193;DHT22;10754;51.106;7.164;2022-09-21T04:07:02;12.60;1.00
21193;DHT22;10754;51.106;7.164;2022-09-21T04:09:29;12.60;1.00
21193;DHT22;10754;51.106;7.164;2022-09-21T04:11:54;12.50;1.00
21193;DHT22;10754;51.106;7.164;2022-09-21T04:14:20;12.50;1.00
21193;DHT22;10754;51.106;7.164;2022-09-21T04:16:47;12.50;1.00
21193;DHT22;10754;51.106;7.164;2022-09-21T04:19:13;12.50;1.00
21193;DHT22;10754;51.106;7.164;2022-09-21T04:21:38;12.50;1.00
21193;DHT22;10754;51.106;7.164;2022-09-21T04:24:04;12.40;1.00
21193;DHT22;10754;51.106;7.164;2022-09-21T04:26:32;12.40;1.00
21193;DHT22;10754;51.106;7.164;2022-09-21T04:28:58;12.40;1.00
21193;DHT22;10754;51.106;7.164;2022-09-21T04:31:25;12.40;1.00
21193;DHT22;10754;51.106;7.164;2022-09-21T04:33:52;12.40;1.00
21193;DHT22;10754;51.106;7.164;2022-09-21T04:36:19;12.40;1.00
21193;DHT22;10754;51.106;7.164;2022-09-21T04:38:46;12.40;1.00
21193;DHT22;10754;51.106;7.164;2022-09-21T04:41:12;12.40;1.00
21193;DHT22;10754;51.106;7.164;2022-09-21T04:43:40;12.40;1.00
21193;DHT22;10754;51.106;7.164;2022-09-21T04:46:09;12.40;1.00
21193;DHT22;10754;51.106;7.164;2022-09-21T04:48:34;12.40;1.00
21193;DHT22;10754;51.106;7.164;2022-09-21T04:51:01;12.30;1.00
21193;DHT22;10754;51.106;7.164;2022-09-21T04:53:27;12.30;1.00
21193;DHT22;10754;51.106;7.164;2022-09-21T04:55:53;12.40;1.00
21193;DHT22;10754;51.106;7.164;2022-09-21T04:58:20;12.30;1.00
21193;DHT22;10754;51.106;7.164;2022-09-21T05:00:49;12.30;1.00
21193;DHT22;10754;51.106;7.164;2022-09-21T05:03:16;12.30;1.00
21193;DHT22;10754;51.106;7.164;2022-09-21T05:05:48;12.30;1.00
21193;DHT22;10754;51.106;7.164;2022-09-21T05:08:15;12.30;1.00
21193;DHT22;10754;51.106;7.164;2022-09-21T05:10:42;12.30;1.00
21193;DHT22;10754;51.106;7.164;2022-09-21T05:13:08;12.30;1.00
21193;DHT22;10754;51.106;7.164;2022-09-21T05:15:35;12.30;1.00
21193;DHT22;10754;51.106;7.164;2022-09-21T05:18:01;12.30;1.00
21193;DHT22;10754;51.106;7.164;2022-09-21T05:20:26;12.30;1.00
21193;DHT22;10754;51.106;7.164;2022-09-21T05:22:52;12.30;1.00
21193;DHT22;10754;51.106;7.164;2022-09-21T05:25:17;12.30;1.00
21193;DHT22;10754;51.106;7.164;2022-09-21T05:27:43;12.30;1.00
21193;DHT22;10754;51.106;7.164;2022-09-21T05:30:09;12.30;1.00
21193;DHT22;10754;51.106;7.164;2022-09-21T05:32:47;12.20;1.00
21193;DHT22;10754;51.106;7.164;2022-09-21T05:35:28;12.20;1.00
21193;DHT22;10754;51.106;7.164;2022-09-21T05:38:05;12.20;1.00
21193;DHT22;10754;51.106;7.164;2022-09-21T05:40:31;12.20;1.00
21193;DHT22;10754;51.106;7.164;2022-09-21T05:42:57;12.20;1.00
21193;DHT22;10754;51.106;7.164;2022-09-21T05:45:23;12.20;1.00
21193;DHT22;10754;51.106;7.164;2022-09-21T05:48:05;12.20;1.00
21193;DHT22;10754;51.106;7.164;2022-09-21T05:51:11;12.20;1.00
21193;DHT22;10754;51.106;7.164;2022-09-21T05:53:44;12.20;1.00
21193;DHT22;10754;51.106;7.164;2022-09-21T05:56:34;12.20;1.00
21193;DHT22;10754;51.106;7.164;2022-09-21T06:02:07;12.20;1.00
21193;DHT22;10754;51.106;7.164;2022-09-21T06:04:36;12.10;1.00
21193;DHT22;10754;51.106;7.164;2022-09-21T06:07:01;12.20;1.00
21193;DHT22;10754;51.106;7.164;2022-09-21T06:09:27;12.20;1.00
21193;DHT22;10754;51.106;7.164;2022-09-21T06:11:52;12.20;1.00
21193;DHT22;10754;51.106;7.164;2022-09-21T06:14:18;12.20;1.00
21193;DHT22;10754;51.106;7.164;2022-09-21T06:16:50;12.20;1.00
21193;DHT22;10754;51.106;7.164;2022-09-21T06:19:16;12.20;1.00
21193;DHT22;10754;51.106;7.164;2022-09-21T06:21:41;12.20;1.00
21193;DHT22;10754;51.106;7.164;2022-09-21T06:24:07;12.30;1.00
21193;DHT22;10754;51.106;7.164;2022-09-21T06:26:33;12.30;1.00
21193;DHT22;10754;51.106;7.164;2022-09-21T06:28:58;12.30;1.00
21193;DHT22;10754;51.106;7.164;2022-09-21T06:31:26;12.30;1.00
21193;DHT22;10754;51.106;7.164;2022-09-21T06:33:51;12.30;1.00
21193;DHT22;10754;51.106;7.164;2022-09-21T06:36:17;12.40;1.00
21193;DHT22;10754;51.106;7.164;2022-09-21T06:38:43;12.40;1.00
21193;DHT22;10754;51.106;7.164;2022-09-21T06:41:08;12.40;1.00
21193;DHT22;10754;51.106;7.164;2022-09-21T06:43:34;12.40;1.00
21193;DHT22;10754;51.106;7.164;2022-09-21T06:46:01;12.40;1.00
21193;DHT22;10754;51.106;7.164;2022-09-21T06:48:28;12.50;1.00
21193;DHT22;10754;51.106;7.164;2022-09-21T06:50:58;12.50;1.00
21193;DHT22;10754;51.106;7.164;2022-09-21T06:53:24;12.60;1.00
21193;DHT22;10754;51.106;7.164;2022-09-21T06:55:50;12.60;1.00
21193;DHT22;10754;51.106;7.164;2022-09-21T06:58:16;12.60;1.00
21193;DHT22;10754;51.106;7.164;2022-09-21T07:00:42;12.70;1.00
21193;DHT22;10754;51.106;7.164;2022-09-21T07:03:11;12.80;1.00
21193;DHT22;10754;51.106;7.164;2022-09-21T07:05:37;12.80;1.00
21193;DHT22;10754;51.106;7.164;2022-09-21T07:08:03;12.90;1.00
21193;DHT22;10754;51.106;7.164;2022-09-21T07:10:29;12.90;1.00
21193;DHT22;10754;51.106;7.164;2022-09-21T07:12:55;12.90;1.00
21193;DHT22;10754;51.106;7.164;2022-09-21T07:15:20;13.00;1.00
21193;DHT22;10754;51.106;7.164;2022-09-21T07:17:46;13.00;1.00
21193;DHT22;10754;51.106;7.164;2022-09-21T07:20:12;13.00;1.00
21193;DHT22;10754;51.106;7.164;2022-09-21T07:22:38;13.10;1.00
21193;DHT22;10754;51.106;7.164;2022-09-21T07:25:04;13.10;1.00
21193;DHT22;10754;51.106;7.164;2022-09-21T07:27:31;13.10;1.00
21193;DHT22;10754;51.106;7.164;2022-09-21T07:29:57;13.10;1.00
21193;DHT22;10754;51.106;7.164;2022-09-21T07:32:24;13.20;1.00
21193;DHT22;10754;51.106;7.164;2022-09-21T07:34:50;13.40;1.00
21193;DHT22;10754;51.106;7.164;2022-09-21T07:37:18;13.50;1.00
21193;DHT22;10754;51.106;7.164;2022-09-21T07:39:43;13.50;1.00
21193;DHT22;10754;51.106;7.164;2022-09-21T07:42:09;13.60;1.00
21193;DHT22;10754;51.106;7.164;2022-09-21T07:44:34;13.60;1.00
21193;DHT22;10754;51.106;7.164;2022-09-21T07:47:00;13.70;1.00
21193;DHT22;10754;51.106;7.164;2022-09-21T07:49:27;13.60;1.00
21193;DHT22;10754;51.106;7.164;2022-09-21T07:51:53;13.60;1.00
21193;DHT22;10754;51.106;7.164;2022-09-21T07:54:18;13.80;1.00
21193;DHT22;10754;51.106;7.164;2022-09-21T07:56:44;13.80;1.00
21193;DHT22;10754;51.106;7.164;2022-09-21T07:59:29;13.80;1.00
21193;DHT22;10754;51.106;7.164;2022-09-21T08:01:57;13.90;1.00
21193;DHT22;10754;51.106;7.164;2022-09-21T08:04:22;14.00;1.00
21193;DHT22;10754;51.106;7.164;2022-09-21T08:06:48;14.10;1.00
21193;DHT22;10754;51.106;7.164;2022-09-21T08:09:13;14.10;1.00
21193;DHT22;10754;51.106;7.164;2022-09-21T08:11:39;14.20;1.00
21193;DHT22;10754;51.106;7.164;2022-09-21T08:14:05;14.20;1.00
21193;DHT22;10754;51.106;7.164;2022-09-21T08:16:32;14.20;1.00
21193;DHT22;10754;51.106;7.164;2022-09-21T08:18:58;14.40;1.00
21193;DHT22;10754;51.106;7.164;2022-09-21T08:21:24;14.50;1.00
21193;DHT22;10754;51.106;7.164;2022-09-21T08:23:49;14.60;1.00
21193;DHT22;10754;51.106;7.164;2022-09-21T08:26:17;14.60;1.00
21193;DHT22;10754;51.106;7.164;2022-09-21T08:28:48;14.70;1.00
21193;DHT22;10754;51.106;7.164;2022-09-21T08:31:18;14.70;1.00
21193;DHT22;10754;51.106;7.164;2022-09-21T08:33:44;14.60;1.00
21193;DHT22;10754;51.106;7.164;2022-09-21T08:36:10;14.70;1.00
21193;DHT22;10754;51.106;7.164;2022-09-21T08:38:37;14.80;1.00
21193;DHT22;10754;51.106;7.164;2022-09-21T08:41:16;14.90;1.00
21193;DHT22;10754;51.106;7.164;2022-09-21T08:43:48;15.00;1.00
21193;DHT22;10754;51.106;7.164;2022-09-21T08:46:19;15.00;1.00
21193;DHT22;10754;51.106;7.164;2022-09-21T08:48:58;15.20;1.00
21193;DHT22;10754;51.106;7.164;2022-09-21T08:51:33;15.10;1.00
21193;DHT22;10754;51.106;7.164;2022-09-21T08:54:06;15.10;1.00
21193;DHT22;10754;51.106;7.164;2022-09-21T08:56:36;15.20;1.00
21193;DHT22;10754;51.106;7.164;2022-09-21T08:59:01;15.40;1.00
21193;DHT22;10754;51.106;7.164;2022-09-21T09:01:54;15.50;1.00
21193;DHT22;10754;51.106;7.164;2022-09-21T09:10:32;15.70;1.00
21193;DHT22;10754;51.106;7.164;2022-09-21T09:19:26;15.60;1.00
21193;DHT22;10754;51.106;7.164;2022-09-21T09:21:56;15.90;1.00
21193;DHT22;10754;51.106;7.164;2022-09-21T09:24:48;15.70;1.00
21193;DHT22;10754;51.106;7.164;2022-09-21T09:32:57;15.80;1.00
21193;DHT22;10754;51.106;7.164;2022-09-21T09:35:33;16.10;1.00
21193;DHT22;10754;51.106;7.164;2022-09-21T09:41:00;16.40;1.00
21193;DHT22;10754;51.106;7.164;2022-09-21T09:43:49;16.70;1.00
21193;DHT22;10754;51.106;7.164;2022-09-21T09:46:31;16.60;1.00
21193;DHT22;10754;51.106;7.164;2022-09-21T09:51:25;17.00;1.00
21193;DHT22;10754;51.106;7.164;2022-09-21T09:53:51;17.00;1.00
21193;DHT22;10754;51.106;7.164;2022-09-21T09:56:20;17.00;1.00
21193;DHT22;10754;51.106;7.164;2022-09-21T09:58:53;17.10;1.00
21193;DHT22;10754;51.106;7.164;2022-09-21T10:01:36;17.50;1.00
21193;DHT22;10754;51.106;7.164;2022-09-21T10:04:05;17.50;1.00
21193;DHT22;10754;51.106;7.164;2022-09-21T10:06:31;17.80;1.00
21193;DHT22;10754;51.106;7.164;2022-09-21T10:08:57;18.00;1.00
21193;DHT22;10754;51.106;7.164;2022-09-21T10:11:34;18.20;1.00
21193;DHT22;10754;51.106;7.164;2022-09-21T10:14:08;18.50;1.00
21193;DHT22;10754;51.106;7.164;2022-09-21T10:16:39;18.60;1.00
21193;DHT22;10754;51.106;7.164;2022-09-21T10:19:23;18.80;1.00
21193;DHT22;10754;51.106;7.164;2022-09-21T10:21:57;19.00;1.00
21193;DHT22;10754;51.106;7.164;2022-09-21T10:24:29;19.10;1.00
21193;DHT22;10754;51.106;7.164;2022-09-21T10:27:05;19.30;1.00
21193;DHT22;10754;51.106;7.164;2022-09-21T10:29:46;19.60;1.00
21193;DHT22;10754;51.106;7.164;2022-09-21T10:34:39;19.90;1.00
21193;DHT22;10754;51.106;7.164;2022-09-21T10:37:44;20.10;1.00
21193;DHT22;10754;51.106;7.164;2022-09-21T10:42:44;20.40;1.00
21193;DHT22;10754;51.106;7.164;2022-09-21T10:45:16;20.60;1.00
21193;DHT22;10754;51.106;7.164;2022-09-21T10:47:45;20.80;1.00
21193;DHT22;10754;51.106;7.164;2022-09-21T10:52:46;21.20;1.00
21193;DHT22;10754;51.106;7.164;2022-09-21T10:55:17;21.40;99.90
21193;DHT22;10754;51.106;7.164;2022-09-21T10:57:44;21.50;99.90
21193;DHT22;10754;51.106;7.164;2022-09-21T11:02:48;22.20;1.00
21193;DHT22;10754;51.106;7.164;2022-09-21T11:05:25;22.40;1.00
21193;DHT22;10754;51.106;7.164;2022-09-21T11:08:02;22.50;99.90
21193;DHT22;10754;51.106;7.164;2022-09-21T11:11:06;22.80;99.90
21193;DHT22;10754;51.106;7.164;2022-09-21T11:13:48;23.00;99.90
21193;DHT22;10754;51.106;7.164;2022-09-21T11:16:27;23.30;99.90
21193;DHT22;10754;51.106;7.164;2022-09-21T11:27:23;25.10;99.90
21193;DHT22;10754;51.106;7.164;2022-09-21T11:30:15;25.40;99.90
21193;DHT22;10754;51.106;7.164;2022-09-21T11:32:57;26.10;99.90
21193;DHT22;10754;51.106;7.164;2022-09-21T11:35:42;26.40;99.90
21193;DHT22;10754;51.106;7.164;2022-09-21T11:38:39;26.80;99.90
21193;DHT22;10754;51.106;7.164;2022-09-21T11:43:59;30.40;99.90
21193;DHT22;10754;51.106;7.164;2022-09-21T11:49:36;31.10;99.90
21193;DHT22;10754;51.106;7.164;2022-09-21T11:55:11;31.60;99.90
21193;DHT22;10754;51.106;7.164;2022-09-21T11:57:49;31.00;99.90
21193;DHT22;10754;51.106;7.164;2022-09-21T12:00:18;30.20;99.90
21193;DHT22;10754;51.106;7.164;2022-09-21T12:06:12;31.70;99.90
21193;DHT22;10754;51.106;7.164;2022-09-21T12:08:43;30.60;99.90
21193;DHT22;10754;51.106;7.164;2022-09-21T12:11:34;28.70;99.90
21193;DHT22;10754;51.106;7.164;2022-09-21T12:14:19;29.30;99.90
21193;DHT22;10754;51.106;7.164;2022-09-21T12:22:35;27.50;99.90
21193;DHT22;10754;51.106;7.164;2022-09-21T12:25:13;26.50;99.90
21193;DHT22;10754;51.106;7.164;2022-09-21T12:27:57;25.90;99.90
21193;DHT22;10754;51.106;7.164;2022-09-21T12:30:27;25.30;99.90
21193;DHT22;10754;51.106;7.164;2022-09-21T12:33:18;24.90;99.90
21193;DHT22;10754;51.106;7.164;2022-09-21T12:36:01;24.60;99.90
21193;DHT22;10754;51.106;7.164;2022-09-21T12:38:54;24.20;99.90
21193;DHT22;10754;51.106;7.164;2022-09-21T12:46:56;23.30;99.90
21193;DHT22;10754;51.106;7.164;2022-09-21T12:49:37;23.30;99.90
21193;DHT22;10754;51.106;7.164;2022-09-21T12:52:05;23.30;99.90
21193;DHT22;10754;51.106;7.164;2022-09-21T12:54:44;23.00;99.90
21193;DHT22;10754;51.106;7.164;2022-09-21T13:00:08;22.80;99.90
21193;DHT22;10754;51.106;7.164;2022-09-21T13:02:43;23.10;99.90
21193;DHT22;10754;51.106;7.164;2022-09-21T13:05:29;23.00;99.90
21193;DHT22;10754;51.106;7.164;2022-09-21T13:08:15;22.80;99.90
21193;DHT22;10754;51.106;7.164;2022-09-21T13:13:32;22.40;99.90
21193;DHT22;10754;51.106;7.164;2022-09-21T13:15:59;22.30;99.90
21193;DHT22;10754;51.106;7.164;2022-09-21T13:18:34;22.10;99.90
21193;DHT22;10754;51.106;7.164;2022-09-21T13:21:13;22.00;99.90
21193;DHT22;10754;51.106;7.164;2022-09-21T13:23:39;21.80;99.90
21193;DHT22;10754;51.106;7.164;2022-09-21T13:26:11;21.70;99.90
21193;DHT22;10754;51.106;7.164;2022-09-21T13:29:02;21.60;99.90
21193;DHT22;10754;51.106;7.164;2022-09-21T13:36:41;21.50;1.00
21193;DHT22;10754;51.106;7.164;2022-09-21T13:41:33;21.60;99.90
21193;DHT22;10754;51.106;7.164;2022-09-21T13:44:02;21.50;99.90
21193;DHT22;10754;51.106;7.164;2022-09-21T13:52:04;21.50;99.90
21193;DHT22;10754;51.106;7.164;2022-09-21T14:00:03;21.60;99.90
21193;DHT22;10754;51.106;7.164;2022-09-21T14:02:33;21.50;99.90
21193;DHT22;10754;51.106;7.164;2022-09-21T14:08:00;21.60;99.90
21193;DHT22;10754;51.106;7.164;2022-09-21T14:10:27;21.50;99.90
21193;DHT22;10754;51.106;7.164;2022-09-21T14:12:56;21.40;99.90
21193;DHT22;10754;51.106;7.164;2022-09-21T14:18:08;21.40;99.90
21193;DHT22;10754;51.106;7.164;2022-09-21T14:20:34;21.20;99.90
21193;DHT22;10754;51.106;7.164;2022-09-21T14:25:54;21.20;99.90
21193;DHT22;10754;51.106;7.164;2022-09-21T14:31:02;20.90;99.90
21193;DHT22;10754;51.106;7.164;2022-09-21T14:33:34;20.90;99.90
21193;DHT22;10754;51.106;7.164;2022-09-21T14:36:05;20.90;1.00
21193;DHT22;10754;51.106;7.164;2022-09-21T14:38:40;20.80;1.00
21193;DHT22;10754;51.106;7.164;2022-09-21T14:41:07;20.80;99.90
21193;DHT22;10754;51.106;7.164;2022-09-21T14:43:35;20.80;99.90
21193;DHT22;10754;51.106;7.164;2022-09-21T14:46:23;20.60;99.90
21193;DHT22;10754;51.106;7.164;2022-09-21T14:54:43;20.40;99.90
21193;DHT22;10754;51.106;7.164;2022-09-21T14:57:27;20.20;99.90
21193;DHT22;10754;51.106;7.164;2022-09-21T15:00:20;20.10;1.00
21193;DHT22;10754;51.106;7.164;2022-09-21T15:03:31;20.00;1.00
21193;DHT22;10754;51.106;7.164;2022-09-21T15:06:25;19.80;99.90
21193;DHT22;10754;51.106;7.164;2022-09-21T15:09:34;19.90;1.00
21193;DHT22;10754;51.106;7.164;2022-09-21T15:12:51;19.80;1.00
21193;DHT22;10754;51.106;7.164;2022-09-21T15:18:21;19.70;1.00
21193;DHT22;10754;51.106;7.164;2022-09-21T15:20:58;19.70;1.00
21193;DHT22;10754;51.106;7.164;2022-09-21T15:23:36;19.70;1.00
21193;DHT22;10754;51.106;7.164;2022-09-21T15:26:08;19.60;1.00
21193;DHT22;10754;51.106;7.164;2022-09-21T15:28:42;19.60;1.00
21193;DHT22;10754;51.106;7.164;2022-09-21T15:31:13;19.60;1.00
21193;DHT22;10754;51.106;7.164;2022-09-21T15:33:40;19.50;1.00
21193;DHT22;10754;51.106;7.164;2022-09-21T15:36:07;19.50;1.00
21193;DHT22;10754;51.106;7.164;2022-09-21T15:38:34;19.50;1.00
21193;DHT22;10754;51.106;7.164;2022-09-21T15:41:01;19.50;1.00
21193;DHT22;10754;51.106;7.164;2022-09-21T15:43:27;19.50;1.00
21193;DHT22;10754;51.106;7.164;2022-09-21T15:45:57;19.40;1.00
21193;DHT22;10754;51.106;7.164;2022-09-21T15:48:37;19.30;1.00
21193;DHT22;10754;51.106;7.164;2022-09-21T15:51:30;19.30;1.00
21193;DHT22;10754;51.106;7.164;2022-09-21T15:54:29;19.20;1.00
21193;DHT22;10754;51.106;7.164;2022-09-21T15:57:00;19.10;1.00
21193;DHT22;10754;51.106;7.164;2022-09-21T15:59:27;19.00;1.00
21193;DHT22;10754;51.106;7.164;2022-09-21T16:01:56;18.80;1.00
21193;DHT22;10754;51.106;7.164;2022-09-21T16:04:24;18.80;1.00
21193;DHT22;10754;51.106;7.164;2022-09-21T16:07:02;18.70;1.00
21193;DHT22;10754;51.106;7.164;2022-09-21T16:09:42;18.60;1.00
21193;DHT22;10754;51.106;7.164;2022-09-21T16:12:36;18.50;1.00
21193;DHT22;10754;51.106;7.164;2022-09-21T16:15:23;18.40;1.00
21193;DHT22;10754;51.106;7.164;2022-09-21T16:17:58;18.30;1.00
21193;DHT22;10754;51.106;7.164;2022-09-21T16:20:38;18.30;1.00
21193;DHT22;10754;51.106;7.164;2022-09-21T16:23:11;18.20;1.00
21193;DHT22;10754;51.106;7.164;2022-09-21T16:25:38;18.20;1.00
21193;DHT22;10754;51.106;7.164;2022-09-21T16:30:48;18.20;1.00
21193;DHT22;10754;51.106;7.164;2022-09-21T16:38:45;18.00;1.00
21193;DHT22;10754;51.106;7.164;2022-09-21T16:41:11;18.00;1.00
21193;DHT22;10754;51.106;7.164;2022-09-21T16:43:37;17.90;1.00
21193;DHT22;10754;51.106;7.164;2022-09-21T16:46:11;17.90;1.00
21193;DHT22;10754;51.106;7.164;2022-09-21T16:48:37;17.90;1.00
21193;DHT22;10754;51.106;7.164;2022-09-21T16:51:08;17.80;1.00
21193;DHT22;10754;51.106;7.164;2022-09-21T16:53:35;17.90;1.00
21193;DHT22;10754;51.106;7.164;2022-09-21T16:56:01;17.90;1.00
21193;DHT22;10754;51.106;7.164;2022-09-21T16:58:27;18.00;1.00
21193;DHT22;10754;51.106;7.164;2022-09-21T17:00:52;18.10;1.00
21193;DHT22;10754;51.106;7.164;2022-09-21T17:03:19;18.10;1.00
21193;DHT22;10754;51.106;7.164;2022-09-21T17:05:44;18.10;1.00
21193;DHT22;10754;51.106;7.164;2022-09-21T17:08:11;18.10;1.00
21193;DHT22;10754;51.106;7.164;2022-09-21T17:10:40;18.10;1.00
21193;DHT22;10754;51.106;7.164;2022-09-21T17:13:07;18.20;1.00
21193;DHT22;10754;51.106;7.164;2022-09-21T17:15:33;18.10;1.00
21193;DHT22;10754;51.106;7.164;2022-09-21T17:18:01;18.10;1.00
21193;DHT22;10754;51.106;7.164;2022-09-21T17:20:40;18.10;1.00
21193;DHT22;10754;51.106;7.164;2022-09-21T17:23:07;18.10;1.00
21193;DHT22;10754;51.106;7.164;2022-09-21T17:25:33;17.90;1.00
21193;DHT22;10754;51.106;7.164;2022-09-21T17:28:00;17.90;1.00
21193;DHT22;10754;51.106;7.164;2022-09-21T17:30:26;17.90;1.00
21193;DHT22;10754;51.106;7.164;2022-09-21T17:32:53;17.90;1.00
21193;DHT22;10754;51.106;7.164;2022-09-21T17:35:38;17.90;1.00
21193;DHT22;10754;51.106;7.164;2022-09-21T17:38:04;17.90;1.00
21193;DHT22;10754;51.106;7.164;2022-09-21T17:40:30;17.80;1.00
21193;DHT22;10754;51.106;7.164;2022-09-21T17:43:29;17.80;1.00
21193;DHT22;10754;51.106;7.164;2022-09-21T17:46:05;17.70;1.00
21193;DHT22;10754;51.106;7.164;2022-09-21T17:48:32;17.60;1.00
21193;DHT22;10754;51.106;7.164;2022-09-21T17:50:58;17.60;1.00
21193;DHT22;10754;51.106;7.164;2022-09-21T17:53:24;17.50;1.00
21193;DHT22;10754;51.106;7.164;2022-09-21T17:56:16;17.50;1.00
21193;DHT22;10754;51.106;7.164;2022-09-21T17:59:03;17.50;1.00
21193;DHT22;10754;51.106;7.164;2022-09-21T18:01:37;17.40;1.00
21193;DHT22;10754;51.106;7.164;2022-09-21T18:04:05;17.40;1.00
21193;DHT22;10754;51.106;7.164;2022-09-21T18:06:31;17.30;1.00
21193;DHT22;10754;51.106;7.164;2022-09-21T18:08:58;17.30;1.00
21193;DHT22;10754;51.106;7.164;2022-09-21T18:14:11;17.10;1.00
21193;DHT22;10754;51.106;7.164;2022-09-21T18:16:54;17.10;1.00
21193;DHT22;10754;51.106;7.164;2022-09-21T18:22:35;17.00;1.00
21193;DHT22;10754;51.106;7.164;2022-09-21T18:25:13;16.90;1.00
21193;DHT22;10754;51.106;7.164;2022-09-21T18:27:40;16.90;1.00
21193;DHT22;10754;51.106;7.164;2022-09-21T18:30:06;16.80;1.00
21193;DHT22;10754;51.106;7.164;2022-09-21T18:35:44;16.70;1.00
21193;DHT22;10754;51.106;7.164;2022-09-21T18:41:04;16.60;1.00
21193;DHT22;10754;51.106;7.164;2022-09-21T18:46:08;16.60;1.00
21193;DHT22;10754;51.106;7.164;2022-09-21T18:48:56;16.50;1.00
21193;DHT22;10754;51.106;7.164;2022-09-21T18:54:23;16.40;1.00
21193;DHT22;10754;51.106;7.164;2022-09-21T18:56:53;16.40;1.00
21193;DHT22;10754;51.106;7.164;2022-09-21T18:59:20;16.30;1.00